Time;durP1;ratioP1;P1;durP2;ratioP2;P2;SDS_P1;SDS_P2;PMS_P1;PMS_P2;Temp;Humidity;BMP_temperature;BMP_pressure;BME280_temperature;BME280_humidity;BME280_pressure;Samples;Min_cycle;Max_cycle;Signal;HPM_P1;HPM_P2
2023/03/11 00:00:58;;;;;;;3.72;1.50;;;2.30;99.90;;;;;;5012106;28;20029;-70
2023/03/11 00:03:24;;;;;;;2.97;1.40;;;2.40;99.90;;;;;;5027341;28;20041;-70
2023/03/11 00:05:51;;;;;;;2.88;1.33;;;2.40;99.90;;;;;;5013790;28;20034;-69
2023/03/11 00:08:20;;;;;;;4.25;1.33;;;2.60;99.90;;;;;;5009629;28;20100;-68
2023/03/11 00:10:47;;;;;;;2.63;1.27;;;2.50;99.90;;;;;;5023199;28;20041;-65
2023/03/11 00:13:15;;;;;;;5.25;1.73;;;2.20;99.90;;;;;;5021147;28;20037;-70
2023/03/11 00:15:44;;;;;;;2.97;1.48;;;2.50;99.90;;;;;;5018821;28;20135;-70
2023/03/11 00:18:10;;;;;;;3.03;1.55;;;2.30;99.90;;;;;;5017140;28;20115;-68
2023/03/11 00:20:38;;;;;;;3.58;1.48;;;2.50;99.90;;;;;;5007779;28;20037;-70
2023/03/11 00:23:05;;;;;;;3.05;1.50;;;2.20;99.90;;;;;;5011376;28;20385;-70
2023/03/11 00:25:33;;;;;;;4.32;1.85;;;2.50;99.90;;;;;;5029534;28;20497;-70
2023/03/11 00:27:59;;;;;;;3.78;2.00;;;2.50;99.90;;;;;;5026953;28;20037;-70
2023/03/11 00:30:26;;;;;;;3.53;1.63;;;2.40;99.90;;;;;;5021990;28;20026;-70
2023/03/11 00:32:54;;;;;;;3.88;1.90;;;2.50;99.90;;;;;;5019816;28;20546;-69
2023/03/11 00:35:23;;;;;;;6.32;1.98;;;2.30;99.90;;;;;;5016493;28;20061;-70
2023/03/11 00:37:53;;;;;;;4.20;1.85;;;2.10;99.90;;;;;;5009070;28;20105;-66
2023/03/11 00:40:20;;;;;;;3.22;1.58;;;2.20;99.90;;;;;;5009397;28;20072;-70
2023/03/11 00:42:45;;;;;;;3.28;1.80;;;2.30;99.90;;;;;;5021113;28;20041;-70
2023/03/11 00:45:12;;;;;;;2.53;1.42;;;2.40;99.90;;;;;;5008911;28;20037;-69
2023/03/11 00:47:38;;;;;;;4.03;1.80;;;2.20;99.90;;;;;;5016767;28;20037;-70
2023/03/11 00:50:05;;;;;;;3.42;1.67;;;2.40;99.90;;;;;;5002480;28;20069;-70
2023/03/11 00:52:30;;;;;;;2.90;1.25;;;2.10;99.90;;;;;;5015174;28;20049;-70
2023/03/11 00:54:57;;;;;;;2.65;1.42;;;2.30;99.90;;;;;;5014735;28;20037;-70
2023/03/11 00:57:23;;;;;;;3.17;1.45;;;2.20;99.90;;;;;;5017430;28;20052;-70
2023/03/11 00:59:49;;;;;;;3.88;1.52;;;2.10;99.90;;;;;;5009116;28;20450;-67
2023/03/11 01:02:15;;;;;;;4.13;1.40;;;2.10;99.90;;;;;;5020414;28;20448;-68
2023/03/11 01:04:41;;;;;;;2.45;1.20;;;2.00;99.90;;;;;;5017102;28;20053;-69
2023/03/11 01:07:06;;;;;;;2.95;1.38;;;2.30;99.90;;;;;;5010613;28;20104;-71
2023/03/11 01:09:32;;;;;;;4.50;1.60;;;2.20;99.90;;;;;;5011272;28;20022;-69
2023/03/11 01:11:57;;;;;;;4.25;1.52;;;2.00;99.90;;;;;;5008535;28;20061;-70
2023/03/11 01:14:23;;;;;;;5.43;1.42;;;2.30;99.90;;;;;;5008726;28;20042;-70
2023/03/11 01:16:49;;;;;;;3.92;1.55;;;2.10;99.90;;;;;;5008210;28;20754;-67
2023/03/11 01:19:14;;;;;;;2.88;1.48;;;2.20;99.90;;;;;;4989893;28;20042;-69
2023/03/11 01:21:41;;;;;;;3.53;1.40;;;1.90;99.90;;;;;;5008105;28;20076;-67
2023/03/11 01:24:08;;;;;;;5.10;1.70;;;2.10;99.90;;;;;;5008074;28;20046;-70
2023/03/11 01:26:33;;;;;;;3.17;1.80;;;2.10;99.90;;;;;;5012747;28;20033;-70
2023/03/11 01:28:59;;;;;;;3.65;1.70;;;1.90;99.90;;;;;;5028052;28;20477;-70
2023/03/11 01:31:24;;;;;;;5.13;1.65;;;2.00;99.90;;;;;;5024123;28;20125;-69
2023/03/11 01:33:50;;;;;;;4.35;2.05;;;1.90;99.90;;;;;;4990948;28;20565;-66
2023/03/11 01:36:16;;;;;;;3.85;1.80;;;1.80;99.90;;;;;;5005866;28;21569;-69
2023/03/11 01:38:41;;;;;;;3.78;2.03;;;1.90;99.90;;;;;;5023560;28;20036;-70
2023/03/11 01:41:10;;;;;;;5.85;2.22;;;2.00;99.90;;;;;;5024786;28;20036;-70
2023/03/11 01:43:41;;;;;;;3.20;1.77;;;1.90;99.90;;;;;;5012087;28;20054;-69
2023/03/11 01:46:58;;;;;;;4.47;2.10;;;1.90;99.90;;;;;;5008503;28;20033;-71
2023/03/11 01:49:25;;;;;;;5.18;1.90;;;2.00;99.90;;;;;;4998333;28;20056;-70
2023/03/11 01:51:55;;;;;;;2.00;1.15;;;1.90;99.90;;;;;;5012864;28;20116;-69
2023/03/11 01:54:25;;;;;;;2.08;0.98;;;1.80;99.90;;;;;;5019763;28;20034;-68
2023/03/11 01:56:52;;;;;;;;;;;1.50;99.90;;;;;;5024013;28;20481;-69
2023/03/11 01:59:22;;;;;;;2.50;0.82;;;1.70;99.90;;;;;;5018100;28;19909;-69
2023/03/11 02:02:22;;;;;;;1.88;0.80;;;1.60;99.90;;;;;;4994153;28;20034;-70
2023/03/11 02:04:49;;;;;;;5.05;0.85;;;1.40;99.90;;;;;;5007809;28;20038;-69
2023/03/11 02:07:14;;;;;;;3.42;0.80;;;1.50;99.90;;;;;;4989790;28;20164;-69
2023/03/11 02:09:40;;;;;;;1.23;0.52;;;1.30;99.90;;;;;;5008966;28;20102;-70
2023/03/11 02:12:08;;;;;;;7.05;0.88;;;1.30;99.90;;;;;;5012844;28;20046;-70
2023/03/11 02:14:35;;;;;;;0.95;0.60;;;1.40;99.90;;;;;;5022783;28;20507;-69
2023/03/11 02:17:01;;;;;;;3.60;0.75;;;1.30;99.90;;;;;;5028141;28;20037;-70
2023/03/11 02:19:32;;;;;;;2.45;0.90;;;1.40;99.90;;;;;;5020543;28;20030;-69
2023/03/11 02:21:58;;;;;;;1.15;0.65;;;1.50;99.90;;;;;;5000975;28;20482;-69
2023/03/11 02:24:33;;;;;;;1.88;0.55;;;1.30;99.90;;;;;;5010404;28;20111;-70
2023/03/11 02:27:07;;;;;;;2.95;0.77;;;1.20;99.90;;;;;;5013587;28;20030;-70
2023/03/11 02:29:33;;;;;;;2.40;0.70;;;1.30;99.90;;;;;;5021525;28;20033;-69
2023/03/11 02:32:05;;;;;;;4.13;0.65;;;1.40;99.90;;;;;;5013904;28;20071;-70
2023/03/11 02:34:33;;;;;;;2.65;0.77;;;1.30;99.90;;;;;;5024361;28;20779;-69
2023/03/11 02:36:59;;;;;;;1.88;0.70;;;1.10;99.90;;;;;;5017989;28;20117;-68
2023/03/11 02:39:30;;;;;;;2.20;0.63;;;1.10;99.90;;;;;;5025765;28;20017;-69
2023/03/11 02:41:57;;;;;;;3.78;0.75;;;1.00;99.90;;;;;;5007762;28;20041;-66
2023/03/11 02:44:23;;;;;;;1.45;0.57;;;0.90;99.90;;;;;;5024777;28;20169;-70
2023/03/11 02:46:49;;;;;;;2.72;0.50;;;1.10;99.90;;;;;;5012751;28;20112;-70
2023/03/11 02:49:16;;;;;;;2.20;0.63;;;0.90;99.90;;;;;;5027342;28;20611;-69
2023/03/11 02:51:42;;;;;;;1.38;0.90;;;1.00;99.90;;;;;;5011569;28;20394;-69
2023/03/11 02:54:07;;;;;;;2.30;0.70;;;0.80;99.90;;;;;;5018272;28;20034;-68
2023/03/11 02:56:33;;;;;;;2.97;0.60;;;0.70;99.90;;;;;;5013552;28;20057;-70
2023/03/11 02:58:58;;;;;;;1.60;0.50;;;0.90;99.90;;;;;;5017012;28;20524;-65
2023/03/11 03:01:24;;;;;;;1.20;0.65;;;0.90;99.90;;;;;;5000858;28;20034;-69
2023/03/11 03:03:50;;;;;;;0.70;0.40;;;0.90;99.90;;;;;;5024493;28;20041;-70
2023/03/11 03:06:15;;;;;;;1.52;0.60;;;0.90;99.90;;;;;;5021334;28;20041;-69
2023/03/11 03:08:41;;;;;;;2.60;0.68;;;0.80;99.90;;;;;;5027085;28;20030;-70
2023/03/11 03:11:07;;;;;;;0.93;0.63;;;0.90;99.90;;;;;;5010722;28;20084;-70
2023/03/11 03:13:32;;;;;;;2.58;0.40;;;0.80;99.90;;;;;;5010709;28;20030;-69
2023/03/11 03:15:59;;;;;;;3.00;0.68;;;0.60;99.90;;;;;;5010775;28;20371;-66
2023/03/11 03:18:24;;;;;;;2.28;0.40;;;0.40;99.90;;;;;;5009731;28;20030;-69
2023/03/11 03:20:51;;;;;;;2.80;0.60;;;0.20;99.90;;;;;;5013003;28;20401;-69
2023/03/11 03:23:17;;;;;;;1.35;0.50;;;0.40;99.90;;;;;;5012942;28;20583;-69
2023/03/11 03:25:44;;;;;;;3.53;0.90;;;0.20;99.90;;;;;;5011105;28;20105;-70
2023/03/11 03:28:11;;;;;;;2.38;0.70;;;0.20;99.90;;;;;;5010088;28;20041;-69
2023/03/11 03:30:37;;;;;;;2.75;0.60;;;0.10;99.90;;;;;;5011577;28;20025;-70
2023/03/11 03:33:03;;;;;;;4.68;0.80;;;0.20;99.90;;;;;;5008639;28;20552;-68
2023/03/11 03:35:28;;;;;;;2.70;0.55;;;0.30;99.90;;;;;;5010394;28;20033;-70
2023/03/11 03:37:54;;;;;;;2.50;0.70;;;0.10;99.90;;;;;;4995345;28;20478;-70
2023/03/11 03:40:20;;;;;;;3.45;0.70;;;0.00;99.90;;;;;;4993210;28;20728;-69
2023/03/11 03:42:46;;;;;;;1.90;0.68;;;-0.10;99.90;;;;;;5010065;28;20030;-68
2023/03/11 03:45:11;;;;;;;4.00;0.70;;;0.10;99.90;;;;;;5008734;28;20026;-70
2023/03/11 03:47:37;;;;;;;8.27;0.77;;;0.20;99.90;;;;;;5010155;28;20029;-70
2023/03/11 03:50:05;;;;;;;3.05;0.68;;;-0.10;99.90;;;;;;5021868;28;20054;-66
2023/03/11 03:52:30;;;;;;;4.70;1.10;;;0.10;99.90;;;;;;5010264;28;20108;-70
2023/03/11 03:54:56;;;;;;;2.58;0.80;;;0.20;99.90;;;;;;5021197;28;20061;-70
2023/03/11 03:57:21;;;;;;;6.88;0.90;;;-0.20;99.90;;;;;;5003526;28;20080;-70
2023/03/11 03:59:47;;;;;;;3.28;1.10;;;0.10;99.90;;;;;;5012761;28;20470;-70
2023/03/11 04:02:13;;;;;;;6.30;1.10;;;-0.20;99.90;;;;;;5024075;28;20037;-69
2023/03/11 04:04:39;;;;;;;2.88;0.95;;;-0.10;99.90;;;;;;5027923;28;20029;-71
2023/03/11 04:07:04;;;;;;;4.47;1.00;;;-0.10;99.90;;;;;;5018986;28;20037;-69
2023/03/11 04:09:31;;;;;;;2.05;0.90;;;0.00;99.90;;;;;;5024780;28;20038;-70
2023/03/11 04:11:58;;;;;;;4.78;1.10;;;0.20;99.90;;;;;;5015651;28;20034;-70
2023/03/11 04:14:24;;;;;;;3.60;0.95;;;0.10;99.90;;;;;;5006712;28;20120;-71
2023/03/11 04:16:50;;;;;;;4.38;1.00;;;-0.10;99.90;;;;;;4989272;28;20061;-71
2023/03/11 04:19:15;;;;;;;2.83;1.08;;;0.10;99.90;;;;;;5019468;28;20033;-69
2023/03/11 04:21:41;;;;;;;1.80;0.90;;;0.00;99.90;;;;;;5009254;28;20485;-70
2023/03/11 04:24:07;;;;;;;6.20;0.80;;;0.00;99.90;;;;;;5018218;28;20541;-70
2023/03/11 04:26:33;;;;;;;4.13;1.08;;;-0.20;99.90;;;;;;5028345;28;20029;-70
2023/03/11 04:28:58;;;;;;;10.45;1.10;;;0.00;99.90;;;;;;5020156;28;20048;-71
2023/03/11 04:31:24;;;;;;;2.15;0.85;;;-0.20;99.90;;;;;;5021113;28;20166;-71
2023/03/11 04:33:49;;;;;;;1.98;0.88;;;-0.30;99.90;;;;;;5023238;28;20033;-70
2023/03/11 04:36:15;;;;;;;5.75;0.70;;;-0.20;99.90;;;;;;5007915;28;20090;-69
2023/03/11 04:38:41;;;;;;;1.95;0.60;;;-0.10;99.90;;;;;;5027085;28;20060;-69
2023/03/11 04:41:07;;;;;;;3.75;0.80;;;-0.10;99.90;;;;;;5026118;28;20034;-71
2023/03/11 04:43:33;;;;;;;1.63;0.90;;;0.00;99.90;;;;;;5012604;28;20600;-69
2023/03/11 04:45:59;;;;;;;3.85;1.05;;;-0.20;99.90;;;;;;5014700;28;20049;-70
2023/03/11 04:48:26;;;;;;;4.72;0.90;;;-0.20;99.90;;;;;;5020907;28;20604;-69
2023/03/11 04:50:51;;;;;;;2.67;1.27;;;-0.10;99.90;;;;;;5010783;28;20042;-71
2023/03/11 04:53:17;;;;;;;9.13;1.17;;;-0.10;99.90;;;;;;5017026;28;20402;-71
2023/03/11 04:55:43;;;;;;;3.58;1.05;;;-0.20;99.90;;;;;;5022102;28;20037;-69
2023/03/11 04:58:08;;;;;;;2.95;1.02;;;-0.10;99.90;;;;;;5019574;28;20034;-70
2023/03/11 05:00:34;;;;;;;2.92;1.17;;;-0.10;99.90;;;;;;5016598;28;20034;-71
2023/03/11 05:03:00;;;;;;;4.03;1.20;;;-0.10;99.90;;;;;;4989356;28;20034;-70
2023/03/11 05:05:26;;;;;;;3.20;1.10;;;-0.40;99.90;;;;;;5024130;28;20024;-69
2023/03/11 05:07:51;;;;;;;2.85;1.02;;;-0.40;99.90;;;;;;5026338;28;20033;-70
2023/03/11 05:10:21;;;;;;;4.78;1.30;;;-0.30;99.90;;;;;;4990865;28;20386;-70
2023/03/11 05:12:50;;;;;;;4.27;1.10;;;-0.30;99.90;;;;;;5009510;28;20145;-70
2023/03/11 05:15:17;;;;;;;4.43;1.10;;;-0.30;99.90;;;;;;5008733;28;20064;-68
2023/03/11 05:17:42;;;;;;;4.72;1.17;;;-0.30;99.90;;;;;;5008304;28;20054;-69
2023/03/11 05:20:09;;;;;;;4.43;1.27;;;-0.10;99.90;;;;;;5005466;28;20065;-68
2023/03/11 05:22:35;;;;;;;7.43;1.27;;;-0.30;99.90;;;;;;5009165;28;20038;-71
2023/03/11 05:25:01;;;;;;;3.08;1.17;;;-0.20;99.90;;;;;;5008348;28;20084;-70
2023/03/11 05:27:26;;;;;;;7.78;1.38;;;-0.40;99.90;;;;;;5008274;28;20109;-70
2023/03/11 05:29:52;;;;;;;5.43;1.50;;;-0.40;99.90;;;;;;5009104;28;20105;-70
2023/03/11 05:32:18;;;;;;;3.33;1.33;;;-0.40;99.90;;;;;;5008180;28;20048;-70
2023/03/11 05:34:44;;;;;;;3.45;1.30;;;-0.60;99.90;;;;;;5007487;28;20038;-70
2023/03/11 05:37:10;;;;;;;4.82;1.08;;;-0.30;99.90;;;;;;5008644;28;20034;-70
2023/03/11 05:39:36;;;;;;;2.75;1.27;;;-0.50;99.90;;;;;;5011488;28;20386;-68
2023/03/11 05:42:03;;;;;;;6.35;1.27;;;-0.40;99.90;;;;;;5017649;28;20033;-70
2023/03/11 05:44:28;;;;;;;11.18;2.13;;;-0.60;99.90;;;;;;5032059;28;20021;-70
2023/03/11 05:46:54;;;;;;;5.55;1.35;;;-0.70;99.90;;;;;;5032518;28;20033;-70
2023/03/11 05:49:20;;;;;;;5.53;1.20;;;-0.50;99.90;;;;;;5018346;28;20056;-70
2023/03/11 05:51:46;;;;;;;5.00;1.45;;;-0.40;99.90;;;;;;5014644;28;20053;-70
2023/03/11 05:54:13;;;;;;;7.75;1.20;;;-0.50;99.90;;;;;;5020568;28;20045;-71
2023/03/11 05:56:40;;;;;;;5.03;1.35;;;-0.40;99.90;;;;;;5029265;28;20758;-67
2023/03/11 05:59:07;;;;;;;3.78;1.00;;;-0.50;99.90;;;;;;5027310;28;20425;-65
2023/03/11 06:01:33;;;;;;;7.75;1.23;;;-0.50;99.90;;;;;;5010410;28;20034;-70
2023/03/11 06:03:59;;;;;;;10.60;1.20;;;-0.50;99.90;;;;;;5015464;28;20033;-71
2023/03/11 06:06:25;;;;;;;7.82;1.27;;;-0.70;99.90;;;;;;5017449;28;20366;-66
2023/03/11 06:08:51;;;;;;;6.68;1.75;;;-0.70;99.90;;;;;;5011913;28;20064;-71
2023/03/11 06:11:17;;;;;;;6.45;1.50;;;-0.50;99.90;;;;;;5012996;28;20428;-70
2023/03/11 06:13:43;;;;;;;6.05;1.17;;;-0.60;99.90;;;;;;5014832;28;20084;-70
2023/03/11 06:16:09;;;;;;;4.40;1.35;;;-0.40;99.90;;;;;;5014391;28;20079;-67
2023/03/11 06:18:34;;;;;;;3.20;1.02;;;-0.60;99.90;;;;;;5026141;28;20080;-70
2023/03/11 06:21:01;;;;;;;8.73;1.08;;;-0.40;99.90;;;;;;5023093;28;20833;-69
2023/03/11 06:23:28;;;;;;;4.28;1.10;;;-0.50;99.90;;;;;;5026867;28;20099;-71
2023/03/11 06:26:04;;;;;;;8.73;1.55;;;-0.70;99.90;;;;;;5014353;28;20034;-71
2023/03/11 06:28:30;;;;;;;3.30;1.08;;;-0.60;99.90;;;;;;5006933;28;20631;-70
2023/03/11 06:31:05;;;;;;;2.90;1.17;;;-0.80;99.90;;;;;;5014734;28;20375;-71
2023/03/11 06:33:30;;;;;;;5.63;1.00;;;-0.60;99.90;;;;;;5014308;28;20194;-70
2023/03/11 06:36:00;;;;;;;7.10;1.40;;;-0.70;99.90;;;;;;5026892;28;20454;-71
2023/03/11 06:38:26;;;;;;;10.63;1.50;;;-0.80;99.90;;;;;;5014217;28;20058;-70
2023/03/11 06:40:52;;;;;;;8.48;1.25;;;-0.60;99.90;;;;;;5014965;28;20479;-71
2023/03/11 06:43:18;;;;;;;8.93;1.20;;;-0.30;99.90;;;;;;5014114;28;20034;-71
2023/03/11 06:45:44;;;;;;;6.28;1.27;;;-0.30;99.90;;;;;;5012560;28;20363;-72
2023/03/11 06:48:10;;;;;;;4.53;1.40;;;-0.20;99.90;;;;;;5023371;28;20087;-67
2023/03/11 06:50:35;;;;;;;4.70;1.27;;;-0.20;99.90;;;;;;5010137;28;20065;-69
2023/03/11 06:53:05;;;;;;;5.45;1.38;;;-0.20;99.90;;;;;;5011644;28;20030;-70
2023/03/11 06:55:31;;;;;;;6.53;1.38;;;0.00;99.90;;;;;;5021594;28;20028;-71
2023/03/11 06:57:56;;;;;;;6.28;1.40;;;0.10;99.90;;;;;;5026099;28;20042;-70
2023/03/11 07:00:22;;;;;;;7.95;1.70;;;0.10;99.90;;;;;;5011349;28;20509;-71
2023/03/11 07:02:48;;;;;;;10.63;1.50;;;-0.10;99.90;;;;;;5004469;28;20036;-71
2023/03/11 07:05:13;;;;;;;5.40;1.42;;;0.20;99.90;;;;;;5012284;28;20148;-66
2023/03/11 07:07:39;;;;;;;5.10;1.23;;;0.40;99.90;;;;;;5008898;28;20056;-71
2023/03/11 07:10:05;;;;;;;11.70;1.58;;;0.20;99.90;;;;;;5017899;28;20072;-71
2023/03/11 07:12:31;;;;;;;10.77;1.40;;;0.40;99.90;;;;;;5014647;28;20092;-70
2023/03/11 07:14:57;;;;;;;9.50;1.38;;;0.40;99.90;;;;;;5011328;28;20026;-70
2023/03/11 07:17:24;;;;;;;3.15;1.25;;;0.50;99.90;;;;;;5008938;28;20030;-70
2023/03/11 07:19:50;;;;;;;4.85;1.23;;;0.60;99.90;;;;;;5010191;28;20182;-70
2023/03/11 07:22:16;;;;;;;4.95;1.30;;;0.70;99.90;;;;;;5023934;28;20129;-70
2023/03/11 07:24:46;;;;;;;8.65;1.10;;;0.70;99.90;;;;;;5027548;28;20057;-72
2023/03/11 07:27:12;;;;;;;7.68;1.20;;;0.70;99.90;;;;;;5012091;28;20468;-66
2023/03/11 07:29:37;;;;;;;4.80;1.35;;;0.70;99.90;;;;;;5020770;28;20101;-71
2023/03/11 07:32:05;;;;;;;7.10;1.42;;;0.90;99.90;;;;;;5013336;28;20424;-70
2023/03/11 07:34:30;;;;;;;5.43;1.73;;;1.00;99.90;;;;;;5019056;28;20033;-70
2023/03/11 07:36:56;;;;;;;4.35;1.40;;;1.20;99.90;;;;;;5030583;28;20095;-70
2023/03/11 07:39:22;;;;;;;6.53;1.60;;;1.40;99.90;;;;;;5020226;28;20029;-70
2023/03/11 07:41:47;;;;;;;5.57;1.40;;;1.60;99.90;;;;;;5028942;28;20033;-71
2023/03/11 07:44:14;;;;;;;16.70;2.22;;;1.30;99.90;;;;;;5008610;28;20034;-67
2023/03/11 07:46:40;;;;;;;6.10;1.50;;;1.40;99.90;;;;;;5004399;28;20029;-68
2023/03/11 07:49:06;;;;;;;7.20;1.65;;;1.40;99.90;;;;;;5007410;28;20085;-70
2023/03/11 07:51:34;;;;;;;4.38;1.35;;;1.00;99.90;;;;;;5008622;28;20497;-70
2023/03/11 07:54:01;;;;;;;8.07;1.70;;;1.10;99.90;;;;;;5007354;28;20033;-71
2023/03/11 07:56:33;;;;;;;7.13;1.85;;;1.00;99.90;;;;;;5009707;28;20374;-71
2023/03/11 07:58:59;;;;;;;8.30;1.48;;;1.20;99.90;;;;;;5008202;28;20474;-71
2023/03/11 08:01:29;;;;;;;5.03;1.70;;;0.90;99.90;;;;;;5010691;28;20057;-70
2023/03/11 08:03:56;;;;;;;7.73;1.90;;;0.90;99.90;;;;;;5007782;28;20489;-70
2023/03/11 08:06:25;;;;;;;4.57;1.27;;;1.00;99.90;;;;;;5007288;28;20056;-69
2023/03/11 08:08:51;;;;;;;9.63;1.80;;;1.10;99.90;;;;;;5010636;28;20045;-69
2023/03/11 08:11:19;;;;;;;6.30;1.40;;;1.20;99.90;;;;;;5008682;28;20030;-67
2023/03/11 08:13:46;;;;;;;7.47;1.55;;;1.30;99.90;;;;;;5025722;28;20067;-69
2023/03/11 08:16:13;;;;;;;6.50;1.63;;;1.20;99.90;;;;;;5010449;28;20505;-71
2023/03/11 08:18:40;;;;;;;4.13;1.45;;;1.30;99.90;;;;;;5006918;28;20034;-69
2023/03/11 08:21:11;;;;;;;6.45;1.58;;;1.20;99.90;;;;;;4984549;28;20034;-69
2023/03/11 08:23:38;;;;;;;4.95;1.50;;;1.40;99.90;;;;;;5008797;28;20037;-68
2023/03/11 08:26:08;;;;;;;7.68;1.90;;;1.30;99.90;;;;;;5028497;28;20041;-67
2023/03/11 08:28:34;;;;;;;7.05;1.65;;;1.50;99.90;;;;;;5022705;28;20084;-67
2023/03/11 08:31:11;;;;;;;4.38;2.03;;;1.60;99.90;;;;;;5002493;28;20034;-67
2023/03/11 08:33:37;;;;;;;10.50;1.75;;;1.60;99.90;;;;;;4991426;28;20123;-67
2023/03/11 08:36:02;;;;;;;8.75;2.08;;;1.60;99.90;;;;;;4990431;28;20030;-67
2023/03/11 08:38:28;;;;;;;5.68;1.77;;;1.70;99.90;;;;;;5008820;28;20053;-67
2023/03/11 08:40:54;;;;;;;5.55;1.85;;;1.70;99.90;;;;;;5009874;28;20030;-67
2023/03/11 08:43:19;;;;;;;3.55;1.42;;;1.90;99.90;;;;;;5008532;28;20079;-66
2023/03/11 08:45:45;;;;;;;5.00;1.65;;;2.10;99.90;;;;;;5009422;28;20572;-68
2023/03/11 08:48:11;;;;;;;5.57;2.03;;;2.00;99.90;;;;;;5007247;28;20053;-68
2023/03/11 08:50:41;;;;;;;4.50;1.67;;;2.00;99.90;;;;;;5007877;28;20030;-66
2023/03/11 08:53:07;;;;;;;5.30;1.90;;;2.10;99.90;;;;;;5008702;28;20625;-67
2023/03/11 08:55:33;;;;;;;8.25;1.92;;;2.30;99.90;;;;;;5024720;28;20053;-68
2023/03/11 08:57:59;;;;;;;6.85;1.80;;;2.30;99.90;;;;;;5022689;28;20427;-67
2023/03/11 09:00:25;;;;;;;6.90;1.77;;;2.10;99.90;;;;;;5008665;28;20029;-65
2023/03/11 09:02:50;;;;;;;3.47;1.80;;;2.10;99.90;;;;;;5010279;28;20439;-66
2023/03/11 09:05:16;;;;;;;6.15;1.52;;;2.00;99.90;;;;;;5012048;28;20033;-69
2023/03/11 09:07:41;;;;;;;4.28;2.00;;;2.30;99.90;;;;;;5020032;28;20057;-68
2023/03/11 09:10:08;;;;;;;7.38;2.08;;;2.30;99.90;;;;;;4990753;28;20048;-70
2023/03/11 09:12:33;;;;;;;4.60;1.83;;;2.80;99.90;;;;;;5015343;28;20538;-69
2023/03/11 09:14:59;;;;;;;4.50;1.90;;;2.70;99.90;;;;;;5008290;28;20105;-68
2023/03/11 09:17:25;;;;;;;8.18;1.98;;;2.80;99.90;;;;;;5007694;28;20053;-68
2023/03/11 09:19:51;;;;;;;7.13;2.55;;;2.70;99.90;;;;;;5008249;28;20121;-68
2023/03/11 09:22:16;;;;;;;9.32;2.08;;;2.40;99.90;;;;;;5009137;28;20108;-68
2023/03/11 09:24:42;;;;;;;7.28;2.15;;;2.30;99.90;;;;;;5009260;28;20137;-69
2023/03/11 09:27:08;;;;;;;10.73;2.38;;;2.40;99.90;;;;;;5008298;28;20053;-69
2023/03/11 09:29:33;;;;;;;5.75;2.08;;;2.60;99.90;;;;;;5007828;28;20502;-68
2023/03/11 09:31:59;;;;;;;6.03;2.40;;;3.00;99.90;;;;;;5008608;28;20454;-68
2023/03/11 09:34:25;;;;;;;4.65;1.67;;;3.30;99.90;;;;;;5007229;28;20077;-68
2023/03/11 09:36:50;;;;;;;6.13;1.75;;;3.30;99.90;;;;;;5008751;28;20133;-69
2023/03/11 09:39:16;;;;;;;5.22;2.20;;;3.30;99.90;;;;;;5009137;28;20034;-68
2023/03/11 09:41:55;;;;;;;3.00;1.50;;;3.50;99.90;;;;;;5008176;28;20079;-68
2023/03/11 09:44:40;;;;;;;4.97;2.00;;;3.40;99.90;;;;;;4994152;28;20037;-67
2023/03/11 09:47:15;;;;;;;9.70;1.80;;;3.50;99.90;;;;;;4989317;28;20030;-68
2023/03/11 09:49:58;;;;;;;3.47;1.40;;;3.30;99.90;;;;;;4987466;28;20042;-68
2023/03/11 09:52:39;;;;;;;5.32;1.35;;;3.10;99.90;;;;;;5008568;28;20041;-67
2023/03/11 09:55:10;;;;;;;3.22;1.33;;;3.10;99.90;;;;;;5008558;28;20140;-68
2023/03/11 09:57:37;;;;;;;3.35;1.45;;;2.90;99.90;;;;;;5006871;28;20049;-69
2023/03/11 10:00:05;;;;;;;4.90;1.27;;;3.00;99.90;;;;;;5006577;28;20045;-69
2023/03/11 10:02:31;;;;;;;4.68;1.40;;;3.00;99.90;;;;;;5006373;28;20026;-69
2023/03/11 10:05:01;;;;;;;5.15;1.50;;;3.00;99.90;;;;;;5016118;28;20033;-69
2023/03/11 10:07:38;;;;;;;5.70;1.70;;;3.00;99.90;;;;;;4990201;28;20030;-69
2023/03/11 10:10:05;;;;;;;3.67;1.38;;;2.80;99.90;;;;;;5008980;28;20030;-69
2023/03/11 10:12:49;;;;;;;3.15;1.10;;;3.00;99.90;;;;;;5007999;28;20030;-69
2023/03/11 10:15:37;;;;;;;6.43;1.30;;;3.00;99.90;;;;;;5007844;28;20548;-69
2023/03/11 10:18:17;;;;;;;5.20;1.85;;;3.10;99.90;;;;;;5006476;28;20044;-69
2023/03/11 10:21:18;;;;;;;5.38;1.38;;;3.20;99.90;;;;;;5007680;28;20506;-69
2023/03/11 10:23:49;;;;;;;3.22;1.48;;;3.20;99.90;;;;;;4999410;28;20029;-70
2023/03/11 10:26:28;;;;;;;5.57;2.10;;;3.20;99.90;;;;;;5008864;28;20433;-70
2023/03/11 10:29:06;;;;;;;4.60;1.88;;;3.20;99.90;;;;;;5012296;28;20378;-70
2023/03/11 10:31:50;;;;;;;10.73;2.80;;;3.30;99.90;;;;;;5010975;28;20034;-70
2023/03/11 10:34:26;;;;;;;10.60;2.42;;;3.30;99.90;;;;;;5012064;28;20033;-70
2023/03/11 10:37:09;;;;;;;7.32;2.05;;;3.10;99.90;;;;;;5012481;28;20018;-70
2023/03/11 10:39:35;;;;;;;5.38;2.15;;;3.30;99.90;;;;;;5009434;28;20793;-70
2023/03/11 10:42:09;;;;;;;7.55;1.83;;;3.20;99.90;;;;;;5011722;28;20704;-70
2023/03/11 10:44:37;;;;;;;8.25;2.38;;;3.10;99.90;;;;;;5009846;28;20038;-70
2023/03/11 10:47:04;;;;;;;6.47;2.30;;;3.20;99.90;;;;;;5013841;28;20029;-71
2023/03/11 10:49:30;;;;;;;9.25;2.40;;;3.00;99.90;;;;;;5019615;28;20052;-71
2023/03/11 10:51:56;;;;;;;6.30;2.47;;;2.90;99.90;;;;;;5018169;28;20048;-71
2023/03/11 10:54:39;;;;;;;8.10;2.17;;;3.00;99.90;;;;;;5022643;28;20474;-71
2023/03/11 10:57:21;;;;;;;5.43;1.77;;;3.10;99.90;;;;;;5025418;28;20474;-70
2023/03/11 10:59:49;;;;;;;6.45;1.40;;;3.00;99.90;;;;;;5008197;28;20022;-71
2023/03/11 11:02:39;;;;;;;3.47;1.58;;;3.20;99.90;;;;;;5008790;28;20068;-71
2023/03/11 11:05:26;;;;;;;8.27;1.80;;;3.00;99.90;;;;;;5031296;28;20029;-71
2023/03/11 11:08:12;;;;;;;7.47;1.90;;;3.10;99.90;;;;;;5005599;28;20042;-71
2023/03/11 11:10:50;;;;;;;4.97;1.60;;;3.30;99.90;;;;;;5027243;28;20029;-71
2023/03/11 11:13:22;;;;;;;9.00;1.88;;;3.50;99.90;;;;;;5016659;28;20492;-71
2023/03/11 11:16:02;;;;;;;4.10;1.80;;;4.20;99.90;;;;;;4992085;28;20018;-71
2023/03/11 11:18:35;;;;;;;4.43;1.73;;;3.70;99.90;;;;;;5002571;28;20038;-71
2023/03/11 11:21:14;;;;;;;4.97;1.60;;;3.20;99.90;;;;;;5006994;28;20080;-71
2023/03/11 11:23:45;;;;;;;6.57;1.70;;;3.60;99.90;;;;;;5015121;28;20038;-72
2023/03/11 11:26:21;;;;;;;4.25;1.70;;;4.00;99.90;;;;;;4998720;28;20071;-70
2023/03/11 11:29:06;;;;;;;7.82;1.85;;;4.10;99.90;;;;;;5015266;28;20097;-70
2023/03/11 11:31:32;;;;;;;5.38;2.10;;;4.40;99.90;;;;;;4993903;28;20386;-69
2023/03/11 11:33:58;;;;;;;5.18;1.88;;;4.40;99.90;;;;;;5019660;28;20037;-71
2023/03/11 11:36:31;;;;;;;4.28;1.85;;;4.50;99.90;;;;;;5016129;28;20061;-70
2023/03/11 11:38:58;;;;;;;5.78;1.70;;;4.60;99.90;;;;;;5019590;28;20037;-70
2023/03/11 11:41:26;;;;;;;5.35;1.88;;;4.00;99.90;;;;;;5013635;28;20152;-70
2023/03/11 11:43:53;;;;;;;4.82;1.60;;;3.80;99.90;;;;;;5009552;28;20046;-70
2023/03/11 11:46:29;;;;;;;7.32;1.60;;;3.70;99.90;;;;;;5006822;28;20169;-70
2023/03/11 11:49:04;;;;;;;6.97;1.88;;;4.00;99.90;;;;;;5004784;28;20058;-70
2023/03/11 11:51:39;;;;;;;4.93;1.67;;;3.80;99.90;;;;;;5009038;28;20059;-72
2023/03/11 11:54:16;;;;;;;9.88;1.90;;;3.90;99.90;;;;;;5010221;28;20073;-70
2023/03/11 11:56:42;;;;;;;5.97;1.30;;;3.50;99.90;;;;;;5008519;28;20494;-71
2023/03/11 11:59:22;;;;;;;10.02;1.98;;;3.30;99.90;;;;;;5000475;28;20383;-70
2023/03/11 12:02:17;;;;;;;6.28;1.42;;;3.00;99.90;;;;;;5004475;28;20094;-69
2023/03/11 12:04:48;;;;;;;5.63;1.58;;;3.10;99.90;;;;;;5009030;28;20068;-72
2023/03/11 12:07:44;;;;;;;6.85;1.70;;;3.20;99.90;;;;;;5008463;28;20025;-70
2023/03/11 12:10:12;;;;;;;3.90;1.45;;;3.40;99.90;;;;;;5005779;28;20438;-69
2023/03/11 12:12:50;;;;;;;6.00;1.65;;;3.50;99.90;;;;;;5016826;28;20026;-70
2023/03/11 12:15:38;;;;;;;6.50;1.63;;;3.70;99.90;;;;;;5009809;28;20542;-70
2023/03/11 12:18:09;;;;;;;4.88;1.88;;;3.30;99.90;;;;;;5009040;28;20537;-70
2023/03/11 12:20:50;;;;;;;1.95;1.00;;;3.00;99.90;;;;;;5009329;28;20037;-70
2023/03/11 12:23:37;;;;;;;4.40;1.83;;;3.30;99.90;;;;;;5010701;28;20042;-70
2023/03/11 12:26:25;;;;;;;6.80;1.35;;;3.90;99.90;;;;;;5009017;28;20037;-70
2023/03/11 12:28:57;;;;;;;3.97;1.20;;;4.50;99.90;;;;;;5009270;28;20022;-70
2023/03/11 12:31:26;;;;;;;3.13;1.45;;;4.90;99.90;;;;;;5010178;28;20113;-70
2023/03/11 12:34:01;;;;;;;2.67;1.42;;;4.40;99.90;;;;;;4998558;28;20079;-70
2023/03/11 12:36:35;;;;;;;4.07;1.45;;;3.90;99.90;;;;;;5011700;28;20042;-70
2023/03/11 12:39:04;;;;;;;3.55;1.45;;;4.20;99.90;;;;;;5014719;28;20037;-70
2023/03/11 12:41:32;;;;;;;5.20;1.40;;;4.80;99.90;;;;;;5009279;28;20772;-72
2023/03/11 12:44:03;;;;;;;3.20;1.20;;;4.90;99.90;;;;;;5009125;28;20034;-70
2023/03/11 12:46:57;;;;;;;3.88;1.38;;;4.50;99.90;;;;;;5012281;28;20034;-69
2023/03/11 12:49:30;;;;;;;4.90;1.38;;;4.50;99.90;;;;;;4991114;28;20097;-70
2023/03/11 12:52:00;;;;;;;1.75;1.20;;;4.10;99.90;;;;;;5007209;28;20125;-70
2023/03/11 12:54:33;;;;;;;4.82;1.40;;;3.80;99.90;;;;;;5024426;28;20083;-69
2023/03/11 12:57:17;;;;;;;3.10;1.17;;;3.90;99.90;;;;;;5010173;28;20080;-70
2023/03/11 13:00:16;;;;;;;7.25;1.33;;;4.30;99.90;;;;;;5004026;28;20030;-70
2023/03/11 13:02:53;;;;;;;4.47;1.38;;;4.40;99.90;;;;;;5004785;28;20026;-70
2023/03/11 13:05:31;;;;;;;2.67;1.40;;;4.80;99.90;;;;;;5004304;28;20037;-71